Yellow Mule RAWS (NWS)

Jump to table bottom
Date/Time Wind Direction Wind Speed knots Wind Gust knots RH % Accumulated Precip Inches Air Temp Fahrenheit
2021-10-18 03:04 S 6 14 50 9.87 33
2021-10-18 02:04 SE 10 14 52 9.87 34
2021-10-18 01:04 SSE 9 15 53 9.87 34
2021-10-18 00:04 SSE 9 13 50 9.87 35
2021-10-17 23:04 SSE 9 12 50 9.87 35
2021-10-17 22:04 SSE 8 16 49 9.87 36
2021-10-17 21:04 SSE 11 15 46 9.87 36
2021-10-17 20:04 SSE 8 15 48 9.87 36
2021-10-17 19:04 SSE 11 28 52 9.87 37
2021-10-17 18:04 SSE 21 29 43 9.87 40
2021-10-17 17:04 SSE 16 23 45 9.87 41
2021-10-17 16:04 SSE 15 23 41 9.87 44
2021-10-17 15:04 SE 14 24 41 9.87 44
2021-10-17 14:04 SE 13 18 40 9.87 44
2021-10-17 13:04 SE 11 17 42 9.87 44
2021-10-17 12:04 ESE 6 15 43 9.87 44
2021-10-17 11:04 SSE 10 14 42 9.87 41
2021-10-17 10:04 S 6 10 46 9.87 38
2021-10-17 09:04 SSE 5 8 45 9.87 36
2021-10-17 08:04 SSE 6 12 53 9.87 31
2021-10-17 07:04 SSE 9 12 59 9.87 29
2021-10-17 06:04 S 8 10 57 9.87 29
2021-10-17 05:04 SSE 7 10 52 9.87 31
2021-10-17 04:04 SSE 6 10 53 9.87 31
2021-10-17 03:04 SSE 6 10 54 9.87 31
2021-10-17 02:04 S 8 10 54 9.87 31
2021-10-17 01:04 S 7 9 68 9.87 27
2021-10-17 00:04 SSE 7 9 62 9.87 30
2021-10-16 23:04 SSE 5 10 63 9.87 30
2021-10-16 22:04 SSE 7 10 68 9.87 31
2021-10-16 21:04 S 7 12 77 9.87 30
2021-10-16 20:04 S 9 11 74 9.87 32
2021-10-16 19:04 SSE 4 7 64 9.87 34
2021-10-16 18:04 SSE 5 14 61 9.87 38
2021-10-16 17:04 S 10 12 67 9.87 39
2021-10-16 16:04 S 8 11 73 9.87 40
2021-10-16 15:04 S 8 10 73 9.86 39
2021-10-16 14:04 S 8 12 72 9.82 38
2021-10-16 13:04 S 8 11 73 9.78 36
2021-10-16 12:04 S 10 13 79 9.75 31
2021-10-16 11:04 S 8 13 83 9.75 29
2021-10-16 10:04 S 10 11 90 9.75 25
2021-10-16 09:04 S 10 11 93 9.75 22
2021-10-16 08:04 S 8 13 88 9.75 23
2021-10-16 07:04 SSW 6 10 95 9.75 21
2021-10-16 06:04 SSW 3 9 98 9.75 22
2021-10-16 05:04 S 4 9 96 9.75 21
2021-10-16 04:04 S 3 10 98 9.75 21
2021-10-16 03:04 WSW 2 11 96 9.75 21
2021-10-16 02:04 S 8 12 93 9.75 23